Nearby METAR Reports

 

KCOS - Colorado Springs, Colorado, USA
Distance from station: S 6mi, 9km
Updated: 12/10/2018 3:54pm
Mostly cloudy
Mostly cloudy
 Wind from SE
Wind: SE 5 mph , 7 km/h
Temperature: 45°F , 7°C
Wind Chill: 42°F , 6°C
Dew Point: -0°F , -18°C
Humidity: 15%
Barometer: 30.15 inHg , 1021 hPa
Clouds: Mostly cloudy
Visibility: 10 miles , 16 km
Cloud details: Mostly cloudy 20000 ft
2018/12/10 22:54 KCOS 102254Z 14004KT 10SM BKN200 07/M18 A3015 RMK AO2 SLP244 T00721183
KAFF - Usaf Academy/Cos, Colorado, USA
Distance from station: NW 7mi, 12km
Updated: 12/10/2018 3:58pm
Clear
Clear
 Wind from SE
Wind: SE 3 mph , 6 km/h
Temperature: 43°F , 6°C
Dew Point: -8°F , -22°C
Humidity: 11%
Barometer: 30.14 inHg , 1020.7 hPa
Clouds: Clear
Visibility: 10 miles , 16 km
2018/12/10 22:58 KAFF 102258Z AUTO 13003KT 10SM CLR 06/M22 A3014 RMK AO2 SLP246 T00641220
 
KFLY - Co Spngs Meadow, Colorado, USA
Distance from station: ENE 8mi, 13km
Updated: 12/10/2018 3:55pm
Clear
Clear
 Wind from WSW
Wind: WSW 3 mph , 6 km/h
Temperature: 39°F , 4°C
Dew Point: -8°F , -22°C
Humidity: 13%
Barometer: 30.16 inHg , 1021.3 hPa
Clouds: Clear
Visibility: 10 miles , 16 km
2018/12/10 22:55 KFLY 102255Z AUTO 25003KT 10SM CLR 04/M22 A3016 RMK AO2 T00371220
KFCS - Fort Carson, Colorado, USA
Distance from station: S 17mi, 27km
Updated: 12/10/2018 2:58pm
Clear
Clear
 Wind from E
Wind: E 5 mph , 7 km/h
Temperature: 48°F , 9°C
Wind Chill: 46°F , 8°C
Dew Point: 3°F , -16°C
Humidity: 15%
Barometer: 30.13 inHg , 1020.3 hPa
Clouds: Clear
Visibility: 10 miles , 16 km
2018/12/10 21:58 KFCS 102158Z AUTO 09004KT 10SM CLR 09/M16 A3013 RMK AO2 SLP246 T00891164 $
 
KMNH - Monument/Elbert, Colorado, USA
Distance from station: N 22mi, 35km
Updated: 12/10/2018 3:48pm
Clear
Clear
 Wind from SSW
Wind: SSW 10 mph , 17 km/h
Temperature: 41°F , 5°C
Wind Chill: 35°F , 2°C
Dew Point: -4°F , -20°C
Humidity: 14%
Barometer: 30.16 inHg , 1021.3 hPa
Clouds: Clear
Visibility: 10 miles , 16 km
2018/12/10 22:48 KMNH 102248Z AUTO 21009KT 10SM CLR 05/M20 A3016 RMK AO2
K1V6 - Canon City, Colorado, USA
Distance from station: SSW 39mi, 62km
Updated: 12/10/2018 3:50pm
Clear
Clear
 Wind from ESE
Wind: ESE 6 mph , 9 km/h
Temperature: 50°F , 10°C
Wind Chill: 48°F , 9°C
Dew Point: 5°F , -15°C
Humidity: 16%
Barometer: 30.13 inHg , 1020.3 hPa
Clouds: Clear
Visibility: 10 miles , 16 km
2018/12/10 22:50 K1V6 102250Z AUTO 11005KT 10SM CLR 10/M15 A3013 RMK AO2
 
KPUB - Pueblo, Colorado, USA
Distance from station: SSE 44mi, 71km
Updated: 12/10/2018 3:53pm
Clear
Clear
 Wind from ENE
Wind: ENE 7 mph , 11 km/h
Temperature: 48°F , 9°C
Wind Chill: 45°F , 7°C
Dew Point: 7°F , -14°C
Humidity: 18%
Barometer: 30.12 inHg , 1020 hPa
Clouds: Clear
Visibility: 10 miles , 16 km
2018/12/10 22:53 KPUB 102253Z 06006KT 10SM CLR 09/M14 A3012 RMK AO2 SLP223 T00941139
KAPA - Denver/Arapahoe, Colorado, USA
Distance from station: N 47mi, 75km
Updated: 12/10/2018 3:53pm
Mostly cloudy
Mostly cloudy
 Wind from N
Wind: N 7 mph , 11 km/h
Temperature: 48°F , 9°C
Wind Chill: 45°F , 7°C
Dew Point: 1°F , -17°C
Humidity: 14%
Barometer: 30.09 inHg , 1019 hPa
Clouds: Mostly cloudy
Visibility: 10 miles , 16 km
Cloud details: Partly cloudy 14000 ft
Mostly cloudy 22000 ft
2018/12/10 22:53 KAPA 102253Z 35006KT 10SM SCT140 BKN220 09/M17 A3009 RMK AO2 SLP208 T00941167